Time;durP1;ratioP1;P1;durP2;ratioP2;P2;SDS_P1;SDS_P2;PMS_P1;PMS_P2;Temp;Humidity;BMP_temperature;BMP_pressure;BME280_temperature;BME280_humidity;BME280_pressure;Samples;Min_cycle;Max_cycle;Signal;HPM_P1;HPM_P2
2023/03/23 00:00:09;;;;;;;6.55;4.10;;;;;;;10.86;100.00;99998.97;5114953;28;20051;-77
2023/03/23 00:02:38;;;;;;;8.95;4.20;;;;;;;10.83;100.00;100009.34;5095816;28;20035;-77
2023/03/23 00:08:26;;;;;;;6.05;4.45;;;;;;;10.94;100.00;100031.75;5117871;27;20062;-77
2023/03/23 00:14:16;;;;;;;7.78;4.10;;;;;;;10.93;100.00;100003.38;5113872;28;20164;-78
2023/03/23 00:20:07;;;;;;;9.48;5.63;;;;;;;10.88;100.00;100024.66;5114514;28;20100;-76
2023/03/23 00:25:58;;;;;;;11.35;5.13;;;;;;;10.93;100.00;100016.75;5114666;28;20084;-77
2023/03/23 00:28:26;;;;;;;9.35;4.53;;;;;;;10.95;100.00;100017.31;5117149;28;20050;-78
2023/03/23 00:31:00;;;;;;;8.05;5.25;;;;;;;10.94;100.00;100013.84;5114253;28;20036;-78
2023/03/23 00:33:27;;;;;;;9.50;5.93;;;;;;;10.92;100.00;100033.84;5114255;28;20464;-78
2023/03/23 00:35:54;;;;;;;7.85;4.05;;;;;;;10.90;100.00;100026.06;5094974;28;20040;-79
2023/03/23 00:38:21;;;;;;;6.65;4.38;;;;;;;10.93;100.00;100022.91;5114291;28;20060;-79
2023/03/23 00:40:47;;;;;;;7.57;4.45;;;;;;;10.96;100.00;100019.75;5113990;28;20043;-80
2023/03/23 00:46:44;;;;;;;10.43;5.07;;;;;;;11.10;100.00;100025.66;5114395;28;20112;-79
2023/03/23 00:49:14;;;;;;;7.65;4.60;;;;;;;10.97;100.00;100018.72;5116930;27;20035;-78
2023/03/23 00:51:41;;;;;;;7.72;5.05;;;;;;;10.69;100.00;100014.09;5113980;28;20067;-78
2023/03/23 00:54:07;;;;;;;7.40;4.80;;;;;;;10.44;100.00;100025.09;5113782;28;20023;-80
2023/03/23 00:59:54;;;;;;;10.32;5.90;;;;;;;10.06;100.00;100006.78;5114212;28;20043;-80
2023/03/23 01:02:19;;;;;;;7.47;4.97;;;;;;;9.96;100.00;99971.84;5116815;28;20035;-79
2023/03/23 01:08:06;;;;;;;11.25;6.47;;;;;;;10.16;100.00;99964.31;5113876;28;20054;-79
2023/03/23 01:10:32;;;;;;;9.90;7.10;;;;;;;10.19;100.00;99974.53;5113563;28;20031;-78
2023/03/23 01:13:02;;;;;;;9.32;6.65;;;;;;;10.23;100.00;99982.91;5113489;28;20038;-79
2023/03/23 01:15:29;;;;;;;10.05;6.15;;;;;;;10.21;100.00;99964.44;5094616;28;20384;-78
2023/03/23 01:21:18;;;;;;;9.57;5.80;;;;;;;10.24;100.00;99955.97;5112860;28;20081;-78
2023/03/23 01:23:46;;;;;;;12.30;6.18;;;;;;;10.23;100.00;99943.66;5113260;28;20036;-78
2023/03/23 01:26:14;;;;;;;10.55;6.68;;;;;;;10.30;100.00;99954.22;5113044;28;20042;-79
2023/03/23 01:28:40;;;;;;;10.32;6.25;;;;;;;10.30;100.00;99966.75;5116321;27;20499;-81
2023/03/23 01:31:07;;;;;;;11.15;6.57;;;;;;;10.45;100.00;99948.38;5094975;28;20028;-78
2023/03/23 01:36:54;;;;;;;9.30;5.95;;;;;;;10.44;100.00;99944.91;5113476;28;20061;-78
2023/03/23 01:42:41;;;;;;;7.55;6.00;;;;;;;10.49;100.00;99931.66;5113453;28;20085;-78
2023/03/23 01:58:36;;;;;;;9.68;5.28;;;;;;;10.94;100.00;99930.91;5113143;28;20138;-78
2023/03/23 02:04:24;;;;;;;10.65;6.05;;;;;;;10.96;100.00;99919.97;5112928;28;20042;-78
2023/03/23 02:06:52;;;;;;;10.88;5.15;;;;;;;11.01;100.00;99902.19;5093673;28;20028;-78
2023/03/23 02:09:18;;;;;;;10.15;5.57;;;;;;;11.02;100.00;99909.16;5114388;28;20044;-78
2023/03/23 02:11:45;;;;;;;7.72;5.78;;;;;;;11.08;100.00;99904.69;5094323;28;20043;-78
2023/03/23 02:14:10;;;;;;;7.18;5.72;;;;;;;11.03;100.00;99909.97;5093686;28;20090;-79
2023/03/23 02:20:09;;;;;;;9.13;5.80;;;;;;;11.12;100.00;99909.31;5112800;28;20084;-77
2023/03/23 02:26:18;;;;;;;10.68;5.57;;;;;;;11.13;100.00;99894.09;5113028;28;20584;-80
2023/03/23 02:29:15;;;;;;;7.22;4.95;;;;;;;11.15;100.00;99891.97;5103723;28;20480;-78
2023/03/23 02:35:10;;;;;;;8.55;5.70;;;;;;;11.17;100.00;99890.69;5116095;28;20555;-78
2023/03/23 02:41:00;;;;;;;7.13;5.00;;;;;;;11.20;100.00;99883.22;5113824;28;20085;-80
2023/03/23 02:46:48;;;;;;;6.15;5.07;;;;;;;11.25;100.00;99878.75;5115993;28;20051;-78
2023/03/23 02:56:11;;;;;;;7.97;4.95;;;;;;;11.38;100.00;99896.38;5116019;28;20043;-78
2023/03/23 03:02:02;;;;;;;7.63;5.20;;;;;;;11.48;100.00;99894.69;5115397;28;20038;-78
2023/03/23 03:04:30;;;;;;;7.18;4.75;;;;;;;11.48;100.00;99894.69;5097206;28;20066;-78
2023/03/23 03:07:04;;;;;;;6.75;5.25;;;;;;;11.51;100.00;99873.81;5118679;28;20044;-78
2023/03/23 03:13:25;;;;;;;6.18;4.72;;;;;;;11.54;100.00;99892.88;5118864;28;20172;-75
2023/03/23 03:19:18;;;;;;;6.28;5.35;;;;;;;11.68;100.00;99904.09;5117811;28;20070;-78
2023/03/23 03:25:06;;;;;;;7.25;4.85;;;;;;;11.70;100.00;99910.81;5115464;28;20039;-78
2023/03/23 03:27:34;;;;;;;9.40;5.25;;;;;;;11.63;100.00;99887.97;5096437;28;20411;-78
2023/03/23 03:30:03;;;;;;;7.90;5.13;;;;;;;11.53;100.00;99885.09;5114943;28;20034;-78
2023/03/23 03:32:38;;;;;;;6.90;4.55;;;;;;;11.56;100.00;99901.47;5118174;28;20578;-77
2023/03/23 03:38:26;;;;;;;7.18;4.45;;;;;;;11.55;100.00;99886.47;5115317;28;20088;-79
2023/03/23 03:44:14;;;;;;;7.35;5.30;;;;;;;11.48;100.00;99893.88;5114734;28;20127;-77
2023/03/23 03:46:40;;;;;;;7.55;4.63;;;;;;;11.48;100.00;99902.72;5095982;28;20040;-75
2023/03/23 03:52:27;;;;;;;6.22;4.32;;;;;;;11.53;100.00;99893.13;5114644;28;20054;-77
2023/03/23 03:54:53;;;;;;;10.77;4.30;;;;;;;11.52;100.00;99881.63;5113077;28;20460;-79
2023/03/23 04:00:41;;;;;;;10.85;5.63;;;;;;;11.47;100.00;99903.75;5114843;28;20081;-77
2023/03/23 04:03:07;;;;;;;9.20;4.63;;;;;;;11.42;100.00;99914.41;5114733;28;20023;-78
2023/03/23 04:05:32;;;;;;;7.72;4.05;;;;;;;11.48;100.00;99909.94;5095700;28;20130;-77
2023/03/23 04:11:19;;;;;;;6.85;3.40;;;;;;;11.54;100.00;99903.59;5114603;28;20169;-78
2023/03/23 04:17:08;;;;;;;9.13;4.00;;;;;;;11.43;100.00;99910.66;5114266;28;20034;-77
2023/03/23 04:19:34;;;;;;;9.55;3.60;;;;;;;11.47;100.00;99921.69;5117352;28;20526;-77
2023/03/23 04:25:21;;;;;;;9.57;3.75;;;;;;;11.39;100.00;99922.09;5114261;28;20043;-77
2023/03/23 04:31:08;;;;;;;9.32;3.95;;;;;;;11.37;100.00;99917.00;5112374;28;20040;-77
2023/03/23 04:36:56;;;;;;;12.25;3.60;;;;;;;11.49;100.00;99925.75;5114289;28;20436;-78
2023/03/23 04:39:21;;;;;;;10.40;2.90;;;;;;;11.49;100.00;99936.47;5116967;28;20043;-76
2023/03/23 04:45:09;;;;;;;9.35;3.00;;;;;;;11.45;100.00;99938.00;5116409;28;20104;-76
2023/03/23 04:50:59;;;;;;;10.90;3.00;;;;;;;11.51;100.00;99951.47;5114209;28;20047;-77
2023/03/23 04:56:47;;;;;;;6.28;2.70;;;;;;;11.44;100.00;99943.59;5113222;28;20127;-79
2023/03/23 04:59:13;;;;;;;9.25;2.60;;;;;;;11.39;100.00;99933.63;5094740;28;20126;-77
2023/03/23 05:05:00;;;;;;;11.25;2.70;;;;;;;11.36;100.00;99922.59;5116049;28;20456;-77
2023/03/23 05:07:25;;;;;;;10.03;3.03;;;;;;;11.30;100.00;99926.22;5099225;28;20032;-78
2023/03/23 05:13:11;;;;;;;7.47;2.70;;;;;;;11.31;100.00;99926.00;5113533;28;20592;-77
2023/03/23 05:18:59;;;;;;;8.57;2.75;;;;;;;11.33;100.00;99931.91;5114004;28;20168;-76
2023/03/23 05:24:46;;;;;;;7.65;2.67;;;;;;;11.28;100.00;99941.72;5112876;28;20042;-77
2023/03/23 05:30:34;;;;;;;9.63;2.88;;;;;;;11.38;100.00;99944.56;5113191;28;20051;-77
2023/03/23 05:36:22;;;;;;;6.05;2.70;;;;;;;11.27;100.00;99946.22;5111132;28;20486;-76
2023/03/23 05:42:09;;;;;;;7.25;2.67;;;;;;;11.32;100.00;99956.25;5113201;28;20084;-77
2023/03/23 05:44:34;;;;;;;6.78;2.78;;;;;;;11.26;100.00;99936.59;5094213;28;20551;-77
2023/03/23 05:47:00;;;;;;;10.77;3.07;;;;;;;11.25;100.00;99951.00;5113117;28;20015;-75
2023/03/23 05:52:47;;;;;;;6.93;2.88;;;;;;;11.18;100.00;99945.81;5113437;28;20085;-79
2023/03/23 05:55:14;;;;;;;10.27;2.85;;;;;;;11.17;100.00;99938.03;5113073;28;20028;-78
2023/03/23 06:01:05;;;;;;;9.52;3.05;;;;;;;11.11;100.00;99944.34;5110970;28;20079;-76
2023/03/23 06:06:53;;;;;;;11.65;3.72;;;;;;;11.14;100.00;99947.34;5112988;28;20038;-76
2023/03/23 06:12:40;;;;;;;8.32;2.80;;;;;;;11.17;100.00;99956.75;5110877;28;20058;-79
2023/03/23 06:18:28;;;;;;;7.00;2.80;;;;;;;11.16;100.00;99969.34;5112974;28;20126;-77
2023/03/23 06:24:15;;;;;;;5.50;2.55;;;;;;;11.23;100.00;99981.75;5112732;28;20053;-79
2023/03/23 06:30:03;;;;;;;13.48;3.63;;;;;;;11.36;100.00;100011.72;5111979;28;20304;-77
2023/03/23 06:35:51;;;;;;;9.48;3.13;;;;;;;11.35;100.00;100015.44;5112628;28;20526;-77
2023/03/23 06:41:38;;;;;;;7.65;2.80;;;;;;;11.31;100.00;100010.81;5110282;28;20426;-78
2023/03/23 06:47:25;;;;;;;11.18;2.88;;;;;;;11.20;100.00;100023.19;5112665;28;20058;-78
2023/03/23 06:53:13;;;;;;;8.85;3.38;;;;;;;10.89;100.00;100018.28;5112576;28;20104;-79
2023/03/23 06:59:00;;;;;;;10.98;2.95;;;;;;;10.88;100.00;100030.81;5112580;28;20101;-79
2023/03/23 07:04:47;;;;;;;8.65;2.85;;;;;;;10.98;100.00;100039.06;5112280;28;20140;-75
2023/03/23 07:10:37;;;;;;;6.72;2.92;;;;;;;10.80;100.00;100028.53;5111313;28;20051;-78
2023/03/23 07:13:02;;;;;;;15.95;2.78;;;;;;;10.74;100.00;100043.66;5091566;28;20550;-77
2023/03/23 07:18:49;;;;;;;9.45;3.35;;;;;;;10.23;100.00;100052.38;5112623;28;20057;-81
2023/03/23 07:21:15;;;;;;;6.05;2.88;;;;;;;10.05;100.00;100060.44;5090968;28;20039;-80
2023/03/23 07:23:40;;;;;;;10.55;3.53;;;;;;;9.83;100.00;100055.66;5115251;28;20035;-79
2023/03/23 07:29:27;;;;;;;11.43;3.30;;;;;;;9.68;100.00;100049.91;5116018;28;20059;-81
2023/03/23 07:35:16;;;;;;;7.30;2.42;;;;;;;9.55;100.00;100058.94;5115316;28;20046;-80
2023/03/23 07:41:03;;;;;;;5.28;2.13;;;;;;;9.07;100.00;100082.09;5115137;28;20360;-79
2023/03/23 07:46:50;;;;;;;2.00;1.75;;;;;;;8.54;100.00;100080.81;5113094;28;20055;-79
2023/03/23 07:52:38;;;;;;;4.60;1.50;;;;;;;8.29;100.00;100082.63;5115205;28;20546;-77
2023/03/23 07:58:25;;;;;;;6.18;1.92;;;;;;;8.34;100.00;100093.47;5113234;28;20081;-82
2023/03/23 08:04:15;;;;;;;3.22;1.65;;;;;;;8.15;100.00;100068.63;5115236;28;20081;-81
2023/03/23 08:10:03;;;;;;;3.15;1.67;;;;;;;8.07;100.00;100055.56;5115518;28;20046;-80
2023/03/23 08:15:51;;;;;;;2.55;1.70;;;;;;;8.35;100.00;100087.13;5114040;28;20039;-81
2023/03/23 08:21:39;;;;;;;7.57;2.45;;;;;;;8.93;100.00;100119.56;5114386;28;20043;-81
2023/03/23 08:27:25;;;;;;;5.45;2.17;;;;;;;9.03;100.00;100118.25;5113013;28;20050;-79
2023/03/23 08:29:51;;;;;;;3.17;1.43;;;;;;;8.98;100.00;100117.06;5113940;28;20028;-79
2023/03/23 08:35:38;;;;;;;8.65;2.20;;;;;;;8.95;100.00;100128.16;5114363;28;20598;-81
2023/03/23 08:38:03;;;;;;;5.65;1.70;;;;;;;8.93;100.00;100130.22;5114260;28;20115;-80
2023/03/23 08:43:52;;;;;;;5.25;2.35;;;;;;;9.02;100.00;100116.63;5114694;28;20073;-81
2023/03/23 08:46:19;;;;;;;4.32;1.88;;;;;;;8.96;100.00;100111.16;5116626;27;20039;-80
2023/03/23 08:52:07;;;;;;;6.55;2.10;;;;;;;8.93;100.00;100116.09;5112028;28;20066;-81
2023/03/23 08:54:32;;;;;;;4.25;1.98;;;;;;;8.98;100.00;100127.75;5116934;28;20077;-81
2023/03/23 09:00:23;;;;;;;5.20;2.00;;;;;;;8.97;100.00;100136.78;5113703;28;20273;-81
2023/03/23 09:06:12;;;;;;;6.88;1.98;;;;;;;9.12;100.00;100138.25;5113906;28;20046;-79
2023/03/23 09:11:59;;;;;;;4.85;1.80;;;;;;;9.06;100.00;100125.81;5113818;28;20050;-80
2023/03/23 09:14:25;;;;;;;4.75;2.05;;;;;;;9.04;100.00;100098.56;5113298;28;20036;-80
2023/03/23 09:16:50;;;;;;;6.97;2.28;;;;;;;9.23;100.00;100121.50;5114339;28;20030;-81
2023/03/23 09:22:44;;;;;;;5.10;2.38;;;;;;;10.17;100.00;100104.03;5113362;28;20042;-80
2023/03/23 09:32:17;;;;;;;8.27;2.63;;;;;;;10.56;100.00;100140.00;5113761;28;20721;-79
2023/03/23 09:34:42;;;;;;;5.38;2.20;;;;;;;10.74;100.00;100131.09;5113677;28;20333;-80
2023/03/23 09:37:09;;;;;;;3.08;2.17;;;;;;;11.25;100.00;100135.66;5094606;28;20068;-79
2023/03/23 09:43:09;;;;;;;6.35;2.72;;;;;;;11.52;100.00;100132.47;5112962;28;20077;-80
2023/03/23 09:52:41;;;;;;;5.93;2.30;;;;;;;12.70;100.00;100156.56;5113373;28;20042;-78
2023/03/23 09:55:11;;;;;;;4.72;2.30;;;;;;;12.84;100.00;100151.69;5094046;28;20082;-81
2023/03/23 10:01:14;;;;;;;7.40;2.50;;;;;;;13.19;100.00;100156.78;5112687;28;20128;-78
2023/03/23 10:03:42;;;;;;;6.75;2.60;;;;;;;13.46;100.00;100169.50;5094346;28;20084;-78
2023/03/23 10:09:29;;;;;;;5.47;2.60;;;;;;;13.27;100.00;100160.91;5112789;28;20092;-80
2023/03/23 10:12:14;;;;;;;4.60;2.05;;;;;;;14.11;100.00;100139.84;5115703;28;20039;-79
2023/03/23 10:18:08;;;;;;;6.03;2.22;;;;;;;16.44;100.00;100171.81;5113613;28;20149;-80
2023/03/23 10:24:01;;;;;;;5.30;2.30;;;;;;;16.66;94.79;100179.66;5112905;28;20089;-81
2023/03/23 10:30:10;;;;;;;6.20;2.70;;;;;;;16.24;99.00;100188.00;5115706;27;20176;-79
2023/03/23 10:36:15;;;;;;;4.93;2.15;;;;;;;15.12;99.08;100180.25;5110423;28;20050;-79
2023/03/23 10:42:07;;;;;;;8.50;3.53;;;;;;;14.78;100.00;100182.44;5112344;28;20038;-78
2023/03/23 10:48:32;;;;;;;6.40;2.65;;;;;;;14.84;100.00;100189.47;5112334;28;20433;-78
2023/03/23 10:54:27;;;;;;;5.53;2.58;;;;;;;14.90;100.00;100162.59;5114127;28;20343;-78
2023/03/23 11:00:18;;;;;;;5.45;2.67;;;;;;;14.99;100.00;100169.09;5114623;28;20093;-78
2023/03/23 11:06:08;;;;;;;7.80;2.35;;;;;;;14.92;100.00;100174.72;5115963;28;20039;-81
2023/03/23 11:11:56;;;;;;;5.63;2.70;;;;;;;15.59;100.00;100176.72;5113803;28;20088;-79
2023/03/23 11:17:43;;;;;;;7.20;2.20;;;;;;;15.76;95.38;100174.63;5115801;28;20043;-79
2023/03/23 11:23:34;;;;;;;7.25;2.28;;;;;;;15.97;96.38;100172.00;5117818;27;20339;-82
2023/03/23 11:29:24;;;;;;;11.40;3.78;;;;;;;16.61;94.98;100193.16;5115365;28;20420;-81
2023/03/23 11:35:18;;;;;;;5.63;2.60;;;;;;;16.16;91.15;100178.50;5115451;28;20046;-80
2023/03/23 11:41:11;;;;;;;7.05;2.25;;;;;;;15.53;94.67;100185.03;5113119;28;20516;-81
2023/03/23 11:47:09;;;;;;;7.95;2.28;;;;;;;15.14;96.64;100178.09;5115185;28;20065;-81
2023/03/23 11:53:05;;;;;;;7.50;2.70;;;;;;;15.44;97.65;100206.28;5118342;28;20054;-79
2023/03/23 11:58:57;;;;;;;4.60;2.15;;;;;;;14.98;100.00;100192.53;5112928;28;20042;-80
2023/03/23 12:05:10;;;;;;;6.35;2.22;;;;;;;15.55;100.00;100183.69;5114837;28;20104;-80
2023/03/23 12:11:27;;;;;;;6.25;2.42;;;;;;;15.21;99.66;100152.81;5118080;27;20080;-75
2023/03/23 12:17:39;;;;;;;6.13;2.53;;;;;;;15.90;90.39;100174.97;5113008;28;20100;-76
2023/03/23 12:23:49;;;;;;;7.75;2.70;;;;;;;15.47;94.13;100166.13;5113791;28;20065;-76
2023/03/23 12:30:15;;;;;;;8.85;3.00;;;;;;;16.05;92.66;100163.41;5114598;28;20084;-76
2023/03/23 12:39:50;;;;;;;6.13;2.67;;;;;;;16.57;89.31;100151.56;5114635;28;20441;-78
2023/03/23 12:45:47;;;;;;;6.80;2.47;;;;;;;15.85;95.21;100142.56;5114108;28;20080;-78
2023/03/23 12:48:22;;;;;;;10.80;3.92;;;;;;;15.84;89.24;100150.94;5117053;28;20047;-79
2023/03/23 12:51:23;;;;;;;6.18;3.05;;;;;;;15.63;91.54;100153.59;5114000;28;20024;-79
2023/03/23 12:54:02;;;;;;;8.70;3.17;;;;;;;16.04;92.38;100142.91;5095188;28;20074;-79
2023/03/23 12:56:41;;;;;;;6.85;3.10;;;;;;;16.15;89.65;100122.94;5095517;28;20024;-77
2023/03/23 12:59:35;;;;;;;9.63;2.95;;;;;;;15.94;91.61;100130.22;5116933;27;20106;-76
2023/03/23 13:02:15;;;;;;;6.40;2.80;;;;;;;16.09;89.86;100126.72;5113816;28;20030;-77
2023/03/23 13:04:46;;;;;;;7.60;3.63;;;;;;;16.90;86.00;100140.22;5094723;28;20530;-76
2023/03/23 13:07:30;;;;;;;8.63;3.22;;;;;;;16.66;87.34;100139.19;5113757;28;20115;-75
2023/03/23 13:10:05;;;;;;;10.25;2.75;;;;;;;16.41;87.88;100153.44;5113799;28;20024;-77
2023/03/23 13:16:08;;;;;;;8.55;3.20;;;;;;;17.49;86.84;100154.91;5111702;28;20487;-75
2023/03/23 13:22:06;;;;;;;10.98;3.17;;;;;;;16.53;87.26;100132.41;5113096;28;20380;-77
2023/03/23 13:24:35;;;;;;;11.55;3.33;;;;;;;15.93;87.46;100133.19;5092591;28;20131;-75
2023/03/23 13:27:01;;;;;;;10.15;3.00;;;;;;;15.85;90.04;100141.75;5095127;28;20028;-75
2023/03/23 13:32:48;;;;;;;12.65;3.40;;;;;;;15.69;89.00;100128.25;5113648;28;20372;-78
2023/03/23 13:38:36;;;;;;;12.30;3.05;;;;;;;15.26;93.96;100160.91;5113817;28;20502;-78
2023/03/23 13:44:26;;;;;;;13.40;3.65;;;;;;;14.06;100.00;100190.06;5113342;28;20068;-81
2023/03/23 13:47:03;;;;;;;10.57;3.70;;;;;;;13.26;100.00;100197.69;5092918;28;20040;-79
2023/03/23 13:52:54;;;;;;;9.68;2.80;;;;;;;11.48;100.00;100188.34;5113319;28;20039;-80
2023/03/23 13:59:14;;;;;;;9.93;2.70;;;;;;;11.22;100.00;100176.28;5113479;28;20046;-80
2023/03/23 14:05:14;;;;;;;7.18;2.55;;;;;;;11.26;100.00;100166.72;5111146;28;20181;-81
2023/03/23 14:11:10;;;;;;;8.98;2.67;;;;;;;12.24;100.00;100168.44;5113025;28;20115;-82
2023/03/23 14:17:17;;;;;;;9.40;2.67;;;;;;;12.09;100.00;100152.06;5113191;28;20055;-80
2023/03/23 14:23:04;;;;;;;9.40;3.17;;;;;;;12.59;100.00;100135.22;5110824;28;20164;-80
2023/03/23 14:25:31;;;;;;;9.20;3.40;;;;;;;12.90;100.00;100158.75;5112490;28;20143;-80
2023/03/23 14:27:57;;;;;;;10.52;3.38;;;;;;;13.04;100.00;100145.81;5114894;27;20339;-78
2023/03/23 14:33:44;;;;;;;9.45;3.47;;;;;;;13.32;100.00;100101.94;5112679;28;20041;-82
2023/03/23 14:39:35;;;;;;;10.50;4.70;;;;;;;13.43;100.00;100092.09;5115668;28;20139;-81
2023/03/23 14:45:24;;;;;;;13.10;3.78;;;;;;;13.65;100.00;100082.16;5110888;28;20042;-86
2023/03/23 14:51:19;;;;;;;11.15;3.10;;;;;;;14.00;100.00;100067.44;5112605;28;20054;-83
2023/03/23 14:57:15;;;;;;;8.30;3.25;;;;;;;14.19;100.00;100079.44;5111189;27;20061;-80
2023/03/23 15:03:13;;;;;;;9.13;3.25;;;;;;;14.14;100.00;100107.06;5112403;28;20513;-81
2023/03/23 15:09:03;;;;;;;10.10;2.97;;;;;;;14.23;100.00;100094.81;5112479;28;20146;-82
2023/03/23 15:14:55;;;;;;;8.77;2.80;;;;;;;13.99;100.00;100106.13;5110344;27;20123;-79
2023/03/23 15:20:42;;;;;;;9.43;3.25;;;;;;;13.95;100.00;100095.91;5112260;28;20042;-80
2023/03/23 15:26:41;;;;;;;9.70;3.30;;;;;;;14.13;100.00;100077.75;5112313;28;20046;-81
2023/03/23 15:32:41;;;;;;;7.32;3.08;;;;;;;13.93;100.00;100052.34;5111525;28;20100;-79
2023/03/23 15:38:34;;;;;;;8.05;3.28;;;;;;;13.36;100.00;100040.47;5111927;28;20039;-76
2023/03/23 15:44:28;;;;;;;9.57;2.60;;;;;;;13.33;100.00;100039.09;5113450;28;20046;-76
2023/03/23 15:50:17;;;;;;;10.35;3.40;;;;;;;13.36;100.00;100059.28;5115070;28;19926;-76
2023/03/23 15:56:06;;;;;;;7.45;2.75;;;;;;;13.76;100.00;100057.00;5115282;28;20046;-75
2023/03/23 16:01:53;;;;;;;11.50;3.53;;;;;;;13.81;100.00;100038.22;5114892;28;20756;-77
2023/03/23 16:07:40;;;;;;;8.32;2.45;;;;;;;13.83;100.00;100051.41;5115051;28;20122;-77
2023/03/23 16:13:27;;;;;;;7.25;2.60;;;;;;;13.79;100.00;100061.88;5112822;28;20384;-79
2023/03/23 16:19:15;;;;;;;11.25;2.90;;;;;;;13.85;100.00;100063.53;5114621;28;20292;-79
2023/03/23 16:25:02;;;;;;;7.72;3.17;;;;;;;13.84;100.00;100063.78;5114771;28;20038;-77
2023/03/23 16:30:49;;;;;;;8.45;2.88;;;;;;;13.66;100.00;100056.09;5114344;28;20051;-78
2023/03/23 16:36:36;;;;;;;9.95;3.17;;;;;;;13.34;100.00;100072.94;5114882;28;20563;-78
2023/03/23 16:42:23;;;;;;;10.80;2.78;;;;;;;13.44;100.00;100081.13;5112270;28;20380;-78
2023/03/23 16:48:11;;;;;;;10.88;3.15;;;;;;;13.35;100.00;100082.63;5114036;28;20419;-79
2023/03/23 16:53:58;;;;;;;13.88;4.05;;;;;;;12.97;100.00;100070.84;5112259;28;20545;-76
2023/03/23 16:59:45;;;;;;;11.38;4.05;;;;;;;12.71;100.00;100056.25;5114126;28;20061;-79
2023/03/23 17:05:34;;;;;;;12.80;3.97;;;;;;;12.61;100.00;100066.88;5113805;28;20268;-76
2023/03/23 17:11:22;;;;;;;12.85;4.30;;;;;;;12.61;100.00;100056.13;5114095;28;20104;-78
2023/03/23 17:20:30;;;;;;;11.05;4.20;;;;;;;12.60;100.00;100054.50;5113528;28;20050;-79
2023/03/23 17:22:58;;;;;;;17.17;5.78;;;;;;;12.56;100.00;100042.66;5116373;28;20484;-78
2023/03/23 17:28:45;;;;;;;13.52;4.20;;;;;;;12.48;100.00;100036.91;5113591;28;20165;-79
2023/03/23 17:34:32;;;;;;;9.57;4.28;;;;;;;12.46;100.00;100037.16;5111503;28;20050;-81
2023/03/23 17:40:19;;;;;;;15.20;4.80;;;;;;;12.44;100.00;100025.88;5113333;28;20523;-79
2023/03/23 17:46:07;;;;;;;12.88;4.78;;;;;;;12.51;100.00;100029.19;5116546;28;20068;-79
2023/03/23 17:51:56;;;;;;;10.82;3.92;;;;;;;12.47;100.00;100033.41;5113294;28;20145;-78
2023/03/23 17:57:43;;;;;;;9.68;4.35;;;;;;;12.49;100.00;100046.56;5113340;28;20552;-77
2023/03/23 18:03:31;;;;;;;11.38;4.22;;;;;;;12.46;100.00;100036.34;5110481;28;20315;-78
2023/03/23 18:09:18;;;;;;;14.48;4.53;;;;;;;12.45;100.00;100015.97;5113317;28;20157;-83
2023/03/23 18:15:06;;;;;;;10.95;4.55;;;;;;;12.45;100.00;100008.72;5113203;28;20081;-80
2023/03/23 18:21:00;;;;;;;10.35;4.68;;;;;;;12.50;100.00;100007.97;5112596;28;20050;-79
2023/03/23 18:26:47;;;;;;;9.10;4.65;;;;;;;12.56;100.00;99975.63;5113074;28;20046;-78
2023/03/23 18:32:38;;;;;;;9.82;4.35;;;;;;;12.69;100.00;99977.91;5112123;28;20082;-81
2023/03/23 18:38:26;;;;;;;9.90;3.97;;;;;;;12.77;100.00;99986.59;5112829;28;20034;-80
2023/03/23 18:44:13;;;;;;;13.93;4.45;;;;;;;12.79;100.00;99981.81;5110450;28;20070;-77
2023/03/23 18:46:38;;;;;;;9.90;4.53;;;;;;;12.76;100.00;99975.06;5112527;28;20608;-79
2023/03/23 18:52:29;;;;;;;13.27;4.30;;;;;;;12.71;100.00;99966.94;5112592;28;20392;-78
2023/03/23 18:54:54;;;;;;;8.65;4.35;;;;;;;12.77;100.00;99970.50;5093617;28;20036;-77
2023/03/23 19:00:42;;;;;;;12.00;3.88;;;;;;;12.78;100.00;99970.25;5112391;28;20063;-77
2023/03/23 19:06:29;;;;;;;10.27;4.57;;;;;;;12.70;100.00;99958.06;5110181;28;20058;-78
2023/03/23 19:12:16;;;;;;;8.70;3.88;;;;;;;12.70;100.00;99957.25;5112152;28;20042;-78
2023/03/23 19:18:03;;;;;;;8.55;3.65;;;;;;;12.73;100.00;99962.16;5113363;28;20293;-77
2023/03/23 19:23:50;;;;;;;10.80;4.00;;;;;;;12.64;100.00;99942.19;5115761;28;20510;-76
2023/03/23 19:29:37;;;;;;;12.55;4.15;;;;;;;12.64;100.00;99942.97;5115318;28;20042;-76
2023/03/23 19:32:02;;;;;;;10.25;4.00;;;;;;;12.68;100.00;99945.97;5096593;28;20028;-78
2023/03/23 19:37:49;;;;;;;8.60;3.50;;;;;;;12.61;100.00;99932.75;5114876;28;20046;-76
2023/03/23 19:43:37;;;;;;;9.60;4.10;;;;;;;12.41;100.00;99932.50;5115382;28;20388;-77
2023/03/23 19:46:02;;;;;;;10.00;3.65;;;;;;;12.17;100.00;99918.53;5079843;28;20028;-79
2023/03/23 19:51:51;;;;;;;11.85;3.65;;;;;;;11.91;100.00;99920.03;5113429;28;20442;-76
2023/03/23 19:57:38;;;;;;;11.77;4.57;;;;;;;12.04;100.00;99922.34;5115050;28;20097;-77
2023/03/23 20:03:25;;;;;;;12.20;4.35;;;;;;;11.70;100.00;99915.38;5115377;28;20276;-77
2023/03/23 20:09:13;;;;;;;11.30;4.18;;;;;;;11.49;100.00;99908.88;5115058;28;20043;-81
2023/03/23 20:15:00;;;;;;;16.33;5.18;;;;;;;11.41;100.00;99903.94;5115234;28;20100;-77
2023/03/23 20:20:47;;;;;;;12.48;4.50;;;;;;;11.64;100.00;99901.09;5112887;28;20192;-76
2023/03/23 20:26:39;;;;;;;16.73;4.85;;;;;;;11.68;100.00;99883.50;5114902;28;20074;-77
2023/03/23 20:32:29;;;;;;;12.57;4.28;;;;;;;11.56;100.00;99881.94;5112981;28;20051;-76
2023/03/23 20:38:17;;;;;;;9.45;4.15;;;;;;;11.45;100.00;99880.97;5114801;28;20055;-82
2023/03/23 20:47:31;;;;;;;12.50;5.05;;;;;;;11.02;100.00;99871.69;5114740;28;20069;-76
2023/03/23 20:53:17;;;;;;;7.05;4.63;;;;;;;11.02;100.00;99871.69;5114524;28;20054;-82
2023/03/23 20:59:05;;;;;;;8.10;4.10;;;;;;;10.97;100.00;99865.44;5112493;28;20486;-80
2023/03/23 21:04:52;;;;;;;14.02;5.10;;;;;;;11.22;100.00;99854.34;5114192;28;20051;-80
2023/03/23 21:07:21;;;;;;;10.75;4.47;;;;;;;11.30;100.00;99846.75;5116974;28;20039;-77
2023/03/23 21:13:10;;;;;;;12.43;4.63;;;;;;;11.41;100.00;99820.94;5117462;27;20540;-79
2023/03/23 21:18:57;;;;;;;10.95;4.28;;;;;;;11.38;100.00;99816.91;5114086;28;20112;-80
2023/03/23 21:24:45;;;;;;;9.35;4.70;;;;;;;11.48;100.00;99833.09;5114035;28;20050;-79
2023/03/23 21:30:32;;;;;;;9.93;4.28;;;;;;;11.51;100.00;99845.19;5111860;28;20129;-77
2023/03/23 21:36:19;;;;;;;10.75;4.20;;;;;;;11.47;100.00;99825.31;5113487;28;20389;-79
2023/03/23 21:42:06;;;;;;;8.55;3.92;;;;;;;11.22;100.00;99822.25;5113903;28;20038;-79
2023/03/23 21:47:55;;;;;;;7.85;3.95;;;;;;;11.04;100.00;99823.31;5113601;28;20046;-79
2023/03/23 21:50:23;;;;;;;12.23;4.60;;;;;;;11.08;100.00;99816.41;5115983;28;20043;-78
2023/03/23 21:56:10;;;;;;;9.20;4.38;;;;;;;11.07;100.00;99814.78;5116440;28;20068;-84
2023/03/23 22:01:58;;;;;;;9.68;3.75;;;;;;;10.90;100.00;99805.94;5114411;28;20505;-88
2023/03/23 22:07:53;;;;;;;5.90;3.58;;;;;;;10.68;100.00;99798.59;5118600;28;20078;-85
2023/03/23 22:17:22;;;;;;;8.43;4.18;;;;;;;10.44;100.00;99773.06;5119263;28;20118;-90
2023/03/23 22:19:48;;;;;;;10.00;4.38;;;;;;;10.41;100.00;99777.03;5099647;28;20042;-86
2023/03/23 22:25:35;;;;;;;12.60;4.50;;;;;;;10.30;100.00;99766.38;5112663;28;20051;-84
2023/03/23 22:31:26;;;;;;;11.13;4.78;;;;;;;10.20;100.00;99741.09;5110832;28;20430;-85
2023/03/23 22:37:12;;;;;;;14.60;4.65;;;;;;;10.22;100.00;99740.84;5113056;28;20076;-86
2023/03/23 22:46:48;;;;;;;11.43;3.72;;;;;;;10.29;100.00;99738.84;5112638;28;20080;-86
2023/03/23 22:52:35;;;;;;;11.48;4.25;;;;;;;10.23;100.00;99729.91;5116487;28;20047;-86
2023/03/23 22:58:24;;;;;;;10.23;4.38;;;;;;;10.32;100.00;99705.47;5114133;28;20066;-87
2023/03/23 23:04:11;;;;;;;6.20;3.40;;;;;;;10.45;100.00;99694.50;5116169;28;20057;-88
2023/03/23 23:09:58;;;;;;;7.53;4.60;;;;;;;10.49;100.00;99692.97;5116007;28;20508;-86
2023/03/23 23:12:24;;;;;;;9.07;4.00;;;;;;;10.54;100.00;99693.84;5118616;27;20052;-86
2023/03/23 23:18:12;;;;;;;9.88;4.50;;;;;;;10.63;100.00;99677.41;5115810;28;20058;-85